Sadiqabad Weather



Sadiqabad's Current Weather

Temprature 45.962o clear sky

clear sky

Rain: 0 %

Min Temprature45.962o
Max Temprature45.962o
Humidity13
Wind Speed4.04 m/h
Sun Rise05:24:02
Sun Set19:20:12
Current Time: 26-Jun-2019 14:49:14
Lat/Lon: 28.31, 70.13




Sadiqabad's Geo Location



Sadiqabad's Weather Forecast

Time Overall Temp Min Temp Max Temp Humidity Wind Speed Rain
26-Jun-2019 (Wed)
17:00:00 few clouds 46.150 46.150 46.150 12 5.28 m/h 0 %
20:00:00 broken clouds 42.050 42.047 42.050 17 2.69 m/h 0 %
23:00:00 scattered clouds 40.240 40.240 40.240 18 3.86 m/h 0 %
27-Jun-2019 (Thu)
02:00:00 clear sky 35.980 35.979 35.980 37 8.24 m/h 0 %
05:00:00 clear sky 34.165 34.165 34.165 42 6.62 m/h 0 %
08:00:00 clear sky 36.850 36.850 36.850 34 5.51 m/h 0 %
11:00:00 clear sky 43.174 43.174 43.174 22 6.5 m/h 0 %
14:00:00 clear sky 46.550 46.550 46.550 14 5.9 m/h 0 %
17:00:00 clear sky 46.280 46.280 46.280 12 6.38 m/h 0 %
20:00:00 clear sky 42.294 42.294 42.294 19 8.22 m/h 0 %
23:00:00 clear sky 37.335 37.335 37.335 36 9.96 m/h 0 %
28-Jun-2019 (Fri)
02:00:00 clear sky 32.628 32.628 32.628 49 6.88 m/h 0 %
05:00:00 clear sky 30.628 30.628 30.628 56 5.63 m/h 0 %
08:00:00 clear sky 32.239 32.239 32.239 51 5.94 m/h 0 %
11:00:00 clear sky 39.225 39.225 39.225 29 5.49 m/h 0 %
14:00:00 clear sky 44.131 44.131 44.131 18 5.01 m/h 0 %
17:00:00 clear sky 45.250 45.250 45.250 14 4.57 m/h 0 %
20:00:00 clear sky 41.450 41.450 41.450 20 6.6 m/h 0 %
23:00:00 clear sky 37.272 37.272 37.272 34 8.25 m/h 0 %
29-Jun-2019 (Sat)
02:00:00 clear sky 32.072 32.072 32.072 57 7.58 m/h 0 %
05:00:00 clear sky 29.699 29.699 29.699 66 4.72 m/h 0 %
08:00:00 clear sky 31.507 31.507 31.507 58 5.6 m/h 0 %
11:00:00 clear sky 39.050 39.050 39.050 31 4.79 m/h 0 %
14:00:00 clear sky 44.450 44.450 44.450 17 4.17 m/h 0 %
17:00:00 clear sky 45.791 45.791 45.791 13 4.41 m/h 0 %
20:00:00 clear sky 42.350 42.350 42.350 15 5.7 m/h 0 %
23:00:00 clear sky 37.650 37.650 37.650 37 9.31 m/h 0 %
30-Jun-2019 (Sun)
02:00:00 clear sky 33.056 33.056 33.056 53 7.56 m/h 0 %
05:00:00 clear sky 30.582 30.582 30.582 62 5.68 m/h 0 %
08:00:00 clear sky 32.382 32.382 32.382 56 5.67 m/h 0 %
11:00:00 clear sky 40.118 40.118 40.118 29 5.76 m/h 0 %
14:00:00 clear sky 44.808 44.808 44.808 18 4.87 m/h 0 %
17:00:00 clear sky 45.650 45.650 45.650 15 3.83 m/h 0 %
20:00:00 clear sky 42.250 42.250 42.250 17 4.49 m/h 0 %
23:00:00 clear sky 38.250 38.250 38.250 36 8.64 m/h 0 %
01-Jul-2019 (Mon)
02:00:00 clear sky 32.250 32.250 32.250 58 8.36 m/h 0 %
05:00:00 clear sky 30.335 30.335 30.335 65 5.28 m/h 0 %
08:00:00 clear sky 32.450 32.450 32.450 55 5.42 m/h 0 %
11:00:00 clear sky 38.950 38.950 38.950 33 5.09 m/h 0 %
14:00:00 clear sky 44.150 44.150 44.150 19 4.01 m/h 0 %


Sadiqabad's Tourist Spots

Historical Places in Sadiqabad

Famous Cities (60)